sensor_id;sensor_type;location;lat;lon;timestamp;P1;durP1;ratioP1;P2;durP2;ratioP2
79399;SDS011;68856;45.586;10.264;2023-06-14T00:00:59;11.82;;;8.98;;
79399;SDS011;68856;45.586;10.264;2023-06-14T00:03:27;9.50;;;8.50;;
79399;SDS011;68856;45.586;10.264;2023-06-14T00:05:54;10.65;;;8.75;;
79399;SDS011;68856;45.586;10.264;2023-06-14T00:08:20;11.35;;;8.30;;
79399;SDS011;68856;45.586;10.264;2023-06-14T00:10:47;12.50;;;8.50;;
79399;SDS011;68856;45.586;10.264;2023-06-14T00:13:13;10.23;;;8.27;;
79399;SDS011;68856;45.586;10.264;2023-06-14T00:15:40;10.63;;;8.40;;
79399;SDS011;68856;45.586;10.264;2023-06-14T00:18:07;10.20;;;8.43;;
79399;SDS011;68856;45.586;10.264;2023-06-14T00:20:34;9.80;;;8.50;;
79399;SDS011;68856;45.586;10.264;2023-06-14T00:23:01;12.20;;;8.60;;
79399;SDS011;68856;45.586;10.264;2023-06-14T00:25:27;10.40;;;8.95;;
79399;SDS011;68856;45.586;10.264;2023-06-14T00:27:56;9.73;;;8.50;;
79399;SDS011;68856;45.586;10.264;2023-06-14T00:30:23;12.73;;;9.63;;
79399;SDS011;68856;45.586;10.264;2023-06-14T00:32:49;9.70;;;8.68;;
79399;SDS011;68856;45.586;10.264;2023-06-14T00:35:16;11.20;;;8.32;;
79399;SDS011;68856;45.586;10.264;2023-06-14T00:37:42;10.50;;;9.13;;
79399;SDS011;68856;45.586;10.264;2023-06-14T00:40:08;9.32;;;8.35;;
79399;SDS011;68856;45.586;10.264;2023-06-14T00:42:34;9.48;;;8.45;;
79399;SDS011;68856;45.586;10.264;2023-06-14T00:45:00;9.50;;;8.35;;
79399;SDS011;68856;45.586;10.264;2023-06-14T00:47:27;11.18;;;9.00;;
79399;SDS011;68856;45.586;10.264;2023-06-14T00:49:53;9.73;;;7.90;;
79399;SDS011;68856;45.586;10.264;2023-06-14T00:52:19;11.82;;;8.27;;
79399;SDS011;68856;45.586;10.264;2023-06-14T00:54:46;9.27;;;7.75;;
79399;SDS011;68856;45.586;10.264;2023-06-14T00:57:12;11.00;;;7.85;;
79399;SDS011;68856;45.586;10.264;2023-06-14T00:59:42;12.82;;;8.35;;
79399;SDS011;68856;45.586;10.264;2023-06-14T01:02:09;10.25;;;8.10;;
79399;SDS011;68856;45.586;10.264;2023-06-14T01:04:35;10.82;;;7.97;;
79399;SDS011;68856;45.586;10.264;2023-06-14T01:07:03;10.05;;;8.60;;
79399;SDS011;68856;45.586;10.264;2023-06-14T01:09:52;10.70;;;8.35;;
79399;SDS011;68856;45.586;10.264;2023-06-14T01:12:31;10.32;;;8.30;;
79399;SDS011;68856;45.586;10.264;2023-06-14T01:15:01;9.98;;;7.80;;
79399;SDS011;68856;45.586;10.264;2023-06-14T01:17:28;12.10;;;9.20;;
79399;SDS011;68856;45.586;10.264;2023-06-14T01:19:58;10.23;;;8.95;;
79399;SDS011;68856;45.586;10.264;2023-06-14T01:22:27;10.75;;;8.13;;
79399;SDS011;68856;45.586;10.264;2023-06-14T01:24:54;8.97;;;7.93;;
79399;SDS011;68856;45.586;10.264;2023-06-14T01:27:23;9.70;;;7.95;;
79399;SDS011;68856;45.586;10.264;2023-06-14T01:29:53;8.93;;;8.02;;
79399;SDS011;68856;45.586;10.264;2023-06-14T01:32:22;9.32;;;7.65;;
79399;SDS011;68856;45.586;10.264;2023-06-14T01:34:48;11.18;;;8.32;;
79399;SDS011;68856;45.586;10.264;2023-06-14T01:37:14;8.63;;;7.72;;
79399;SDS011;68856;45.586;10.264;2023-06-14T01:39:41;9.05;;;7.78;;
79399;SDS011;68856;45.586;10.264;2023-06-14T01:42:09;11.52;;;8.25;;
79399;SDS011;68856;45.586;10.264;2023-06-14T01:44:37;9.98;;;7.43;;
79399;SDS011;68856;45.586;10.264;2023-06-14T01:47:03;8.25;;;6.93;;
79399;SDS011;68856;45.586;10.264;2023-06-14T01:49:29;8.70;;;7.53;;
79399;SDS011;68856;45.586;10.264;2023-06-14T01:51:58;8.15;;;7.25;;
79399;SDS011;68856;45.586;10.264;2023-06-14T01:54:25;12.82;;;7.35;;
79399;SDS011;68856;45.586;10.264;2023-06-14T01:56:51;9.23;;;7.57;;
79399;SDS011;68856;45.586;10.264;2023-06-14T01:59:17;12.52;;;8.43;;
79399;SDS011;68856;45.586;10.264;2023-06-14T02:01:43;8.70;;;7.38;;
79399;SDS011;68856;45.586;10.264;2023-06-14T02:04:11;9.18;;;7.22;;
79399;SDS011;68856;45.586;10.264;2023-06-14T02:06:37;8.55;;;7.65;;
79399;SDS011;68856;45.586;10.264;2023-06-14T02:09:03;11.63;;;7.90;;
79399;SDS011;68856;45.586;10.264;2023-06-14T02:11:29;10.48;;;7.75;;
79399;SDS011;68856;45.586;10.264;2023-06-14T02:13:56;9.23;;;8.10;;
79399;SDS011;68856;45.586;10.264;2023-06-14T02:16:25;8.68;;;7.75;;
79399;SDS011;68856;45.586;10.264;2023-06-14T02:18:53;11.65;;;8.30;;
79399;SDS011;68856;45.586;10.264;2023-06-14T02:21:19;10.70;;;7.97;;
79399;SDS011;68856;45.586;10.264;2023-06-14T02:23:45;12.30;;;8.13;;
79399;SDS011;68856;45.586;10.264;2023-06-14T02:26:11;14.98;;;8.50;;
79399;SDS011;68856;45.586;10.264;2023-06-14T02:28:37;10.65;;;7.65;;
79399;SDS011;68856;45.586;10.264;2023-06-14T02:31:03;13.82;;;8.18;;
79399;SDS011;68856;45.586;10.264;2023-06-14T02:33:29;10.23;;;8.85;;
79399;SDS011;68856;45.586;10.264;2023-06-14T02:35:55;10.60;;;9.50;;
79399;SDS011;68856;45.586;10.264;2023-06-14T02:38:22;10.13;;;7.95;;
79399;SDS011;68856;45.586;10.264;2023-06-14T02:40:48;9.02;;;7.63;;
79399;SDS011;68856;45.586;10.264;2023-06-14T02:43:14;10.60;;;8.20;;
79399;SDS011;68856;45.586;10.264;2023-06-14T02:45:42;10.65;;;7.43;;
79399;SDS011;68856;45.586;10.264;2023-06-14T02:48:08;8.68;;;7.55;;
79399;SDS011;68856;45.586;10.264;2023-06-14T02:50:34;8.07;;;6.75;;
79399;SDS011;68856;45.586;10.264;2023-06-14T02:53:01;9.25;;;6.85;;
79399;SDS011;68856;45.586;10.264;2023-06-14T02:55:27;8.85;;;6.82;;
79399;SDS011;68856;45.586;10.264;2023-06-14T02:57:54;6.88;;;6.18;;
79399;SDS011;68856;45.586;10.264;2023-06-14T03:00:20;7.60;;;6.45;;
79399;SDS011;68856;45.586;10.264;2023-06-14T03:02:46;7.00;;;5.88;;
79399;SDS011;68856;45.586;10.264;2023-06-14T03:05:12;10.68;;;7.05;;
79399;SDS011;68856;45.586;10.264;2023-06-14T03:07:39;6.68;;;5.97;;
79399;SDS011;68856;45.586;10.264;2023-06-14T03:10:07;12.75;;;6.82;;
79399;SDS011;68856;45.586;10.264;2023-06-14T03:12:34;8.40;;;6.90;;
79399;SDS011;68856;45.586;10.264;2023-06-14T03:15:01;7.82;;;6.78;;
79399;SDS011;68856;45.586;10.264;2023-06-14T03:17:28;11.05;;;6.90;;
79399;SDS011;68856;45.586;10.264;2023-06-14T03:19:55;10.68;;;6.65;;
79399;SDS011;68856;45.586;10.264;2023-06-14T03:22:21;10.38;;;6.57;;
79399;SDS011;68856;45.586;10.264;2023-06-14T03:24:47;8.55;;;6.63;;
79399;SDS011;68856;45.586;10.264;2023-06-14T03:27:13;7.80;;;6.30;;
79399;SDS011;68856;45.586;10.264;2023-06-14T03:29:39;7.60;;;6.43;;
79399;SDS011;68856;45.586;10.264;2023-06-14T03:32:06;7.80;;;6.90;;
79399;SDS011;68856;45.586;10.264;2023-06-14T03:34:32;8.07;;;6.45;;
79399;SDS011;68856;45.586;10.264;2023-06-14T03:36:58;9.07;;;6.65;;
79399;SDS011;68856;45.586;10.264;2023-06-14T03:39:24;8.02;;;7.18;;
79399;SDS011;68856;45.586;10.264;2023-06-14T03:41:50;13.00;;;6.63;;
79399;SDS011;68856;45.586;10.264;2023-06-14T03:44:17;7.88;;;6.35;;
79399;SDS011;68856;45.586;10.264;2023-06-14T03:46:44;9.15;;;6.30;;
79399;SDS011;68856;45.586;10.264;2023-06-14T03:49:11;6.68;;;6.07;;
79399;SDS011;68856;45.586;10.264;2023-06-14T03:51:37;6.93;;;6.22;;
79399;SDS011;68856;45.586;10.264;2023-06-14T03:54:03;6.70;;;6.10;;
79399;SDS011;68856;45.586;10.264;2023-06-14T03:56:29;8.43;;;6.45;;
79399;SDS011;68856;45.586;10.264;2023-06-14T03:58:55;7.43;;;6.60;;
79399;SDS011;68856;45.586;10.264;2023-06-14T04:01:21;8.80;;;5.97;;
79399;SDS011;68856;45.586;10.264;2023-06-14T04:03:52;9.45;;;5.65;;
79399;SDS011;68856;45.586;10.264;2023-06-14T04:06:18;7.45;;;6.32;;
79399;SDS011;68856;45.586;10.264;2023-06-14T04:08:45;6.97;;;6.05;;
79399;SDS011;68856;45.586;10.264;2023-06-14T04:11:11;6.70;;;6.00;;
79399;SDS011;68856;45.586;10.264;2023-06-14T04:13:37;6.60;;;5.90;;
79399;SDS011;68856;45.586;10.264;2023-06-14T04:16:04;5.25;;;4.75;;
79399;SDS011;68856;45.586;10.264;2023-06-14T04:18:30;5.45;;;4.95;;
79399;SDS011;68856;45.586;10.264;2023-06-14T04:20:56;5.82;;;5.28;;
79399;SDS011;68856;45.586;10.264;2023-06-14T04:23:22;5.32;;;4.80;;
79399;SDS011;68856;45.586;10.264;2023-06-14T04:25:48;5.50;;;5.00;;
79399;SDS011;68856;45.586;10.264;2023-06-14T04:28:14;6.65;;;5.20;;
79399;SDS011;68856;45.586;10.264;2023-06-14T04:30:42;7.63;;;5.22;;
79399;SDS011;68856;45.586;10.264;2023-06-14T04:33:09;8.15;;;4.75;;
79399;SDS011;68856;45.586;10.264;2023-06-14T04:35:36;5.32;;;4.45;;
79399;SDS011;68856;45.586;10.264;2023-06-14T04:38:03;6.35;;;4.47;;
79399;SDS011;68856;45.586;10.264;2023-06-14T04:40:35;7.35;;;5.03;;
79399;SDS011;68856;45.586;10.264;2023-06-14T04:43:10;4.90;;;4.18;;
79399;SDS011;68856;45.586;10.264;2023-06-14T04:45:42;5.90;;;5.07;;
79399;SDS011;68856;45.586;10.264;2023-06-14T04:48:11;7.28;;;5.85;;
79399;SDS011;68856;45.586;10.264;2023-06-14T04:50:37;10.38;;;5.90;;
79399;SDS011;68856;45.586;10.264;2023-06-14T04:53:05;6.80;;;6.00;;
79399;SDS011;68856;45.586;10.264;2023-06-14T04:55:32;6.53;;;4.65;;
79399;SDS011;68856;45.586;10.264;2023-06-14T04:57:58;7.25;;;6.07;;
79399;SDS011;68856;45.586;10.264;2023-06-14T05:00:24;6.07;;;5.47;;
79399;SDS011;68856;45.586;10.264;2023-06-14T05:02:51;6.63;;;5.50;;
79399;SDS011;68856;45.586;10.264;2023-06-14T05:05:18;5.95;;;5.35;;
79399;SDS011;68856;45.586;10.264;2023-06-14T05:07:46;7.18;;;5.82;;
79399;SDS011;68856;45.586;10.264;2023-06-14T05:10:12;7.45;;;5.72;;
79399;SDS011;68856;45.586;10.264;2023-06-14T05:12:38;5.82;;;5.18;;
79399;SDS011;68856;45.586;10.264;2023-06-14T05:15:04;8.38;;;5.65;;
79399;SDS011;68856;45.586;10.264;2023-06-14T05:17:30;8.02;;;4.82;;
79399;SDS011;68856;45.586;10.264;2023-06-14T05:19:57;8.07;;;5.55;;
79399;SDS011;68856;45.586;10.264;2023-06-14T05:22:23;7.70;;;4.93;;
79399;SDS011;68856;45.586;10.264;2023-06-14T05:24:49;5.55;;;5.05;;
79399;SDS011;68856;45.586;10.264;2023-06-14T05:27:16;8.60;;;5.35;;
79399;SDS011;68856;45.586;10.264;2023-06-14T05:29:42;6.78;;;5.05;;
79399;SDS011;68856;45.586;10.264;2023-06-14T05:32:08;7.00;;;5.00;;
79399;SDS011;68856;45.586;10.264;2023-06-14T05:34:34;6.18;;;5.57;;
79399;SDS011;68856;45.586;10.264;2023-06-14T05:37:00;6.32;;;5.13;;
79399;SDS011;68856;45.586;10.264;2023-06-14T05:39:29;6.75;;;5.32;;
79399;SDS011;68856;45.586;10.264;2023-06-14T05:41:55;7.30;;;4.88;;
79399;SDS011;68856;45.586;10.264;2023-06-14T05:44:21;6.50;;;4.53;;
79399;SDS011;68856;45.586;10.264;2023-06-14T05:46:47;6.35;;;4.90;;
79399;SDS011;68856;45.586;10.264;2023-06-14T05:49:13;7.22;;;4.90;;
79399;SDS011;68856;45.586;10.264;2023-06-14T05:51:39;7.10;;;5.32;;
79399;SDS011;68856;45.586;10.264;2023-06-14T05:54:05;6.90;;;5.63;;
79399;SDS011;68856;45.586;10.264;2023-06-14T05:56:31;6.47;;;5.00;;
79399;SDS011;68856;45.586;10.264;2023-06-14T05:58:57;8.27;;;5.55;;
79399;SDS011;68856;45.586;10.264;2023-06-14T06:01:23;6.00;;;5.40;;
79399;SDS011;68856;45.586;10.264;2023-06-14T06:03:50;8.77;;;5.45;;
79399;SDS011;68856;45.586;10.264;2023-06-14T06:06:16;7.28;;;5.32;;
79399;SDS011;68856;45.586;10.264;2023-06-14T06:08:42;8.85;;;5.88;;
79399;SDS011;68856;45.586;10.264;2023-06-14T06:11:09;7.10;;;5.15;;
79399;SDS011;68856;45.586;10.264;2023-06-14T06:13:35;7.60;;;6.10;;
79399;SDS011;68856;45.586;10.264;2023-06-14T06:16:02;6.38;;;5.25;;
79399;SDS011;68856;45.586;10.264;2023-06-14T06:18:28;9.70;;;6.00;;
79399;SDS011;68856;45.586;10.264;2023-06-14T06:20:55;8.65;;;5.65;;
79399;SDS011;68856;45.586;10.264;2023-06-14T06:23:21;7.30;;;5.40;;
79399;SDS011;68856;45.586;10.264;2023-06-14T06:25:47;6.40;;;5.30;;
79399;SDS011;68856;45.586;10.264;2023-06-14T06:28:13;6.13;;;5.40;;
79399;SDS011;68856;45.586;10.264;2023-06-14T06:30:39;5.35;;;4.85;;
79399;SDS011;68856;45.586;10.264;2023-06-14T06:33:05;6.18;;;5.20;;
79399;SDS011;68856;45.586;10.264;2023-06-14T06:35:32;7.97;;;5.25;;
79399;SDS011;68856;45.586;10.264;2023-06-14T06:37:58;6.47;;;5.60;;
79399;SDS011;68856;45.586;10.264;2023-06-14T06:40:25;7.82;;;5.18;;
79399;SDS011;68856;45.586;10.264;2023-06-14T06:42:51;8.82;;;5.03;;
79399;SDS011;68856;45.586;10.264;2023-06-14T06:45:17;8.57;;;4.80;;
79399;SDS011;68856;45.586;10.264;2023-06-14T06:47:43;7.88;;;5.20;;
79399;SDS011;68856;45.586;10.264;2023-06-14T06:50:09;6.18;;;5.00;;
79399;SDS011;68856;45.586;10.264;2023-06-14T06:52:35;5.03;;;4.53;;
79399;SDS011;68856;45.586;10.264;2023-06-14T06:55:01;5.50;;;4.72;;
79399;SDS011;68856;45.586;10.264;2023-06-14T06:57:28;7.38;;;4.80;;
79399;SDS011;68856;45.586;10.264;2023-06-14T06:59:54;5.10;;;4.53;;
79399;SDS011;68856;45.586;10.264;2023-06-14T07:02:20;4.68;;;4.20;;
79399;SDS011;68856;45.586;10.264;2023-06-14T07:04:46;5.53;;;4.47;;
79399;SDS011;68856;45.586;10.264;2023-06-14T07:07:12;3.90;;;3.60;;
79399;SDS011;68856;45.586;10.264;2023-06-14T07:09:39;4.30;;;3.90;;
79399;SDS011;68856;45.586;10.264;2023-06-14T07:12:06;4.72;;;3.88;;
79399;SDS011;68856;45.586;10.264;2023-06-14T07:14:33;5.22;;;4.20;;
79399;SDS011;68856;45.586;10.264;2023-06-14T07:16:59;6.00;;;4.60;;
79399;SDS011;68856;45.586;10.264;2023-06-14T07:19:25;5.45;;;4.93;;
79399;SDS011;68856;45.586;10.264;2023-06-14T07:21:52;4.28;;;3.88;;
79399;SDS011;68856;45.586;10.264;2023-06-14T07:24:18;5.63;;;4.15;;
79399;SDS011;68856;45.586;10.264;2023-06-14T07:26:46;4.47;;;3.65;;
79399;SDS011;68856;45.586;10.264;2023-06-14T07:29:13;4.00;;;3.70;;
79399;SDS011;68856;45.586;10.264;2023-06-14T07:31:39;3.65;;;3.35;;
79399;SDS011;68856;45.586;10.264;2023-06-14T07:34:05;4.45;;;3.53;;
79399;SDS011;68856;45.586;10.264;2023-06-14T07:36:31;5.25;;;3.63;;
79399;SDS011;68856;45.586;10.264;2023-06-14T07:38:57;5.35;;;3.90;;
79399;SDS011;68856;45.586;10.264;2023-06-14T07:41:24;7.10;;;3.50;;
79399;SDS011;68856;45.586;10.264;2023-06-14T07:43:50;8.10;;;4.35;;
79399;SDS011;68856;45.586;10.264;2023-06-14T07:46:16;6.85;;;4.20;;
79399;SDS011;68856;45.586;10.264;2023-06-14T07:48:43;4.95;;;4.28;;
79399;SDS011;68856;45.586;10.264;2023-06-14T07:51:09;7.68;;;3.85;;
79399;SDS011;68856;45.586;10.264;2023-06-14T07:53:35;6.10;;;4.50;;
79399;SDS011;68856;45.586;10.264;2023-06-14T07:56:01;5.47;;;4.50;;
79399;SDS011;68856;45.586;10.264;2023-06-14T07:58:27;5.07;;;4.18;;
79399;SDS011;68856;45.586;10.264;2023-06-14T08:00:53;4.72;;;4.18;;
79399;SDS011;68856;45.586;10.264;2023-06-14T08:03:20;6.75;;;4.78;;
79399;SDS011;68856;45.586;10.264;2023-06-14T08:05:47;4.90;;;4.40;;
79399;SDS011;68856;45.586;10.264;2023-06-14T08:08:13;5.13;;;3.97;;
79399;SDS011;68856;45.586;10.264;2023-06-14T08:10:40;4.68;;;3.95;;
79399;SDS011;68856;45.586;10.264;2023-06-14T08:13:06;6.00;;;3.85;;
79399;SDS011;68856;45.586;10.264;2023-06-14T08:15:32;6.47;;;3.83;;
79399;SDS011;68856;45.586;10.264;2023-06-14T08:17:58;4.10;;;3.70;;
79399;SDS011;68856;45.586;10.264;2023-06-14T08:20:25;3.85;;;3.45;;
79399;SDS011;68856;45.586;10.264;2023-06-14T08:22:51;5.75;;;3.85;;
79399;SDS011;68856;45.586;10.264;2023-06-14T08:27:47;4.53;;;3.35;;
79399;SDS011;68856;45.586;10.264;2023-06-14T08:30:15;4.35;;;3.35;;
79399;SDS011;68856;45.586;10.264;2023-06-14T08:32:42;5.03;;;4.63;;
79399;SDS011;68856;45.586;10.264;2023-06-14T08:35:08;6.32;;;5.07;;
79399;SDS011;68856;45.586;10.264;2023-06-14T08:37:38;4.35;;;4.00;;
79399;SDS011;68856;45.586;10.264;2023-06-14T08:40:06;6.35;;;3.75;;
79399;SDS011;68856;45.586;10.264;2023-06-14T08:42:38;5.75;;;4.07;;
79399;SDS011;68856;45.586;10.264;2023-06-14T08:45:04;4.32;;;3.40;;
79399;SDS011;68856;45.586;10.264;2023-06-14T08:47:31;3.50;;;3.22;;
79399;SDS011;68856;45.586;10.264;2023-06-14T08:50:01;5.22;;;4.22;;
79399;SDS011;68856;45.586;10.264;2023-06-14T08:52:29;4.80;;;3.42;;
79399;SDS011;68856;45.586;10.264;2023-06-14T08:54:59;5.80;;;4.55;;
79399;SDS011;68856;45.586;10.264;2023-06-14T08:57:27;6.28;;;4.13;;
79399;SDS011;68856;45.586;10.264;2023-06-14T08:59:55;9.63;;;4.18;;
79399;SDS011;68856;45.586;10.264;2023-06-14T09:02:22;6.70;;;3.88;;
79399;SDS011;68856;45.586;10.264;2023-06-14T09:04:48;5.50;;;4.05;;
79399;SDS011;68856;45.586;10.264;2023-06-14T09:07:17;5.18;;;3.83;;
79399;SDS011;68856;45.586;10.264;2023-06-14T09:09:43;5.22;;;4.22;;
79399;SDS011;68856;45.586;10.264;2023-06-14T09:12:10;6.82;;;4.55;;
79399;SDS011;68856;45.586;10.264;2023-06-14T09:14:37;5.60;;;4.03;;
79399;SDS011;68856;45.586;10.264;2023-06-14T09:17:05;6.05;;;3.83;;
79399;SDS011;68856;45.586;10.264;2023-06-14T09:19:31;7.22;;;5.10;;
79399;SDS011;68856;45.586;10.264;2023-06-14T09:21:58;8.20;;;4.40;;
79399;SDS011;68856;45.586;10.264;2023-06-14T09:24:24;8.85;;;4.45;;
79399;SDS011;68856;45.586;10.264;2023-06-14T09:26:53;7.20;;;4.40;;
79399;SDS011;68856;45.586;10.264;2023-06-14T09:29:19;5.65;;;4.63;;
79399;SDS011;68856;45.586;10.264;2023-06-14T09:31:46;6.43;;;4.20;;
79399;SDS011;68856;45.586;10.264;2023-06-14T09:34:12;4.47;;;3.88;;
79399;SDS011;68856;45.586;10.264;2023-06-14T09:36:39;6.25;;;3.70;;
79399;SDS011;68856;45.586;10.264;2023-06-14T09:39:08;4.20;;;3.65;;
79399;SDS011;68856;45.586;10.264;2023-06-14T09:41:35;5.32;;;4.40;;
79399;SDS011;68856;45.586;10.264;2023-06-14T09:44:02;5.95;;;4.15;;
79399;SDS011;68856;45.586;10.264;2023-06-14T09:46:29;5.57;;;4.10;;
79399;SDS011;68856;45.586;10.264;2023-06-14T09:48:56;5.97;;;4.25;;
79399;SDS011;68856;45.586;10.264;2023-06-14T09:51:22;4.00;;;3.50;;
79399;SDS011;68856;45.586;10.264;2023-06-14T09:53:49;7.63;;;4.35;;
79399;SDS011;68856;45.586;10.264;2023-06-14T09:56:28;4.80;;;3.40;;
79399;SDS011;68856;45.586;10.264;2023-06-14T09:58:58;4.25;;;3.80;;
79399;SDS011;68856;45.586;10.264;2023-06-14T10:01:25;4.60;;;3.88;;
79399;SDS011;68856;45.586;10.264;2023-06-14T10:04:02;5.32;;;4.45;;
79399;SDS011;68856;45.586;10.264;2023-06-14T10:06:29;8.52;;;3.80;;
79399;SDS011;68856;45.586;10.264;2023-06-14T10:08:58;4.93;;;3.85;;
79399;SDS011;68856;45.586;10.264;2023-06-14T10:13:51;5.15;;;4.35;;
79399;SDS011;68856;45.586;10.264;2023-06-14T10:16:24;9.65;;;4.68;;
79399;SDS011;68856;45.586;10.264;2023-06-14T10:21:22;6.72;;;4.47;;
79399;SDS011;68856;45.586;10.264;2023-06-14T10:23:52;10.43;;;4.28;;
79399;SDS011;68856;45.586;10.264;2023-06-14T10:26:21;4.78;;;4.07;;
79399;SDS011;68856;45.586;10.264;2023-06-14T10:31:23;5.32;;;3.95;;
79399;SDS011;68856;45.586;10.264;2023-06-14T10:34:05;6.63;;;4.03;;
79399;SDS011;68856;45.586;10.264;2023-06-14T10:36:31;5.88;;;4.07;;
79399;SDS011;68856;45.586;10.264;2023-06-14T10:41:28;5.35;;;3.97;;
79399;SDS011;68856;45.586;10.264;2023-06-14T10:46:36;7.35;;;4.18;;
79399;SDS011;68856;45.586;10.264;2023-06-14T10:49:02;4.13;;;3.72;;
79399;SDS011;68856;45.586;10.264;2023-06-14T10:51:29;3.75;;;3.33;;
79399;SDS011;68856;45.586;10.264;2023-06-14T10:53:56;5.72;;;3.58;;
79399;SDS011;68856;45.586;10.264;2023-06-14T10:56:30;4.28;;;3.20;;
79399;SDS011;68856;45.586;10.264;2023-06-14T10:58:57;5.53;;;3.13;;
79399;SDS011;68856;45.586;10.264;2023-06-14T11:04:10;3.40;;;3.10;;
79399;SDS011;68856;45.586;10.264;2023-06-14T11:06:47;3.58;;;2.92;;
79399;SDS011;68856;45.586;10.264;2023-06-14T11:12:01;3.42;;;2.92;;
79399;SDS011;68856;45.586;10.264;2023-06-14T11:14:30;4.45;;;3.08;;
79399;SDS011;68856;45.586;10.264;2023-06-14T11:16:57;3.25;;;2.90;;
79399;SDS011;68856;45.586;10.264;2023-06-14T11:19:23;3.78;;;3.20;;
79399;SDS011;68856;45.586;10.264;2023-06-14T11:21:51;3.35;;;3.03;;
79399;SDS011;68856;45.586;10.264;2023-06-14T11:24:17;3.80;;;3.05;;
79399;SDS011;68856;45.586;10.264;2023-06-14T11:26:43;4.78;;;3.20;;
79399;SDS011;68856;45.586;10.264;2023-06-14T11:29:10;4.30;;;3.90;;
79399;SDS011;68856;45.586;10.264;2023-06-14T11:31:36;3.50;;;3.20;;
79399;SDS011;68856;45.586;10.264;2023-06-14T11:34:02;5.25;;;3.08;;
79399;SDS011;68856;45.586;10.264;2023-06-14T11:36:30;3.67;;;3.13;;
79399;SDS011;68856;45.586;10.264;2023-06-14T11:38:59;3.30;;;3.00;;
79399;SDS011;68856;45.586;10.264;2023-06-14T11:41:26;5.75;;;3.40;;
79399;SDS011;68856;45.586;10.264;2023-06-14T11:43:57;4.97;;;3.22;;
79399;SDS011;68856;45.586;10.264;2023-06-14T11:46:25;4.72;;;3.15;;
79399;SDS011;68856;45.586;10.264;2023-06-14T11:48:51;4.03;;;3.03;;
79399;SDS011;68856;45.586;10.264;2023-06-14T11:51:18;4.85;;;3.35;;
79399;SDS011;68856;45.586;10.264;2023-06-14T11:53:45;5.40;;;3.35;;
79399;SDS011;68856;45.586;10.264;2023-06-14T11:56:12;5.65;;;3.60;;
79399;SDS011;68856;45.586;10.264;2023-06-14T11:58:38;5.18;;;3.45;;
79399;SDS011;68856;45.586;10.264;2023-06-14T12:01:05;5.90;;;3.55;;
79399;SDS011;68856;45.586;10.264;2023-06-14T12:03:32;3.55;;;3.10;;
79399;SDS011;68856;45.586;10.264;2023-06-14T12:06:07;5.22;;;2.97;;
79399;SDS011;68856;45.586;10.264;2023-06-14T12:08:34;7.07;;;3.72;;
79399;SDS011;68856;45.586;10.264;2023-06-14T12:11:04;4.38;;;3.80;;
79399;SDS011;68856;45.586;10.264;2023-06-14T12:13:30;4.40;;;3.50;;
79399;SDS011;68856;45.586;10.264;2023-06-14T12:15:56;3.42;;;3.10;;
79399;SDS011;68856;45.586;10.264;2023-06-14T12:18:32;4.93;;;3.13;;
79399;SDS011;68856;45.586;10.264;2023-06-14T12:20:59;7.10;;;3.45;;
79399;SDS011;68856;45.586;10.264;2023-06-14T12:23:42;4.15;;;3.25;;
79399;SDS011;68856;45.586;10.264;2023-06-14T12:26:09;5.60;;;3.38;;
79399;SDS011;68856;45.586;10.264;2023-06-14T12:28:35;4.55;;;3.30;;
79399;SDS011;68856;45.586;10.264;2023-06-14T12:31:01;3.95;;;3.50;;
79399;SDS011;68856;45.586;10.264;2023-06-14T12:33:28;3.90;;;3.50;;
79399;SDS011;68856;45.586;10.264;2023-06-14T12:35:55;6.88;;;3.42;;
79399;SDS011;68856;45.586;10.264;2023-06-14T12:38:24;4.13;;;2.95;;
79399;SDS011;68856;45.586;10.264;2023-06-14T12:40:50;3.67;;;2.80;;
79399;SDS011;68856;45.586;10.264;2023-06-14T12:43:17;8.15;;;4.10;;
79399;SDS011;68856;45.586;10.264;2023-06-14T12:45:43;3.75;;;2.90;;
79399;SDS011;68856;45.586;10.264;2023-06-14T12:48:09;5.05;;;2.92;;
79399;SDS011;68856;45.586;10.264;2023-06-14T12:50:35;4.25;;;3.13;;
79399;SDS011;68856;45.586;10.264;2023-06-14T12:53:02;4.75;;;3.17;;
79399;SDS011;68856;45.586;10.264;2023-06-14T12:55:28;5.32;;;3.33;;
79399;SDS011;68856;45.586;10.264;2023-06-14T12:57:54;3.65;;;2.78;;
79399;SDS011;68856;45.586;10.264;2023-06-14T13:00:20;5.00;;;3.35;;
79399;SDS011;68856;45.586;10.264;2023-06-14T13:02:47;4.55;;;3.33;;
79399;SDS011;68856;45.586;10.264;2023-06-14T13:05:13;4.25;;;3.13;;
79399;SDS011;68856;45.586;10.264;2023-06-14T13:07:39;3.47;;;3.10;;
79399;SDS011;68856;45.586;10.264;2023-06-14T13:10:05;5.82;;;2.80;;
79399;SDS011;68856;45.586;10.264;2023-06-14T13:12:31;7.63;;;4.07;;
79399;SDS011;68856;45.586;10.264;2023-06-14T13:14:57;3.65;;;3.28;;
79399;SDS011;68856;45.586;10.264;2023-06-14T13:17:23;3.53;;;2.80;;
79399;SDS011;68856;45.586;10.264;2023-06-14T13:19:49;3.30;;;2.95;;
79399;SDS011;68856;45.586;10.264;2023-06-14T13:22:15;5.22;;;3.30;;
79399;SDS011;68856;45.586;10.264;2023-06-14T13:24:41;3.10;;;2.80;;
79399;SDS011;68856;45.586;10.264;2023-06-14T13:27:08;3.88;;;2.92;;
79399;SDS011;68856;45.586;10.264;2023-06-14T13:29:34;6.57;;;2.90;;
79399;SDS011;68856;45.586;10.264;2023-06-14T13:32:01;5.85;;;3.22;;
79399;SDS011;68856;45.586;10.264;2023-06-14T13:34:27;3.28;;;2.97;;
79399;SDS011;68856;45.586;10.264;2023-06-14T13:36:53;3.08;;;2.67;;
79399;SDS011;68856;45.586;10.264;2023-06-14T13:39:20;3.10;;;2.80;;
79399;SDS011;68856;45.586;10.264;2023-06-14T13:41:46;3.08;;;2.78;;
79399;SDS011;68856;45.586;10.264;2023-06-14T13:44:12;3.38;;;3.08;;
79399;SDS011;68856;45.586;10.264;2023-06-14T13:46:40;4.10;;;3.10;;
79399;SDS011;68856;45.586;10.264;2023-06-14T13:49:08;2.88;;;2.58;;
79399;SDS011;68856;45.586;10.264;2023-06-14T13:51:35;4.35;;;2.60;;
79399;SDS011;68856;45.586;10.264;2023-06-14T13:54:01;4.90;;;3.10;;
79399;SDS011;68856;45.586;10.264;2023-06-14T13:56:27;2.95;;;2.67;;
79399;SDS011;68856;45.586;10.264;2023-06-14T13:58:55;2.70;;;2.42;;
79399;SDS011;68856;45.586;10.264;2023-06-14T14:01:21;3.30;;;2.88;;
79399;SDS011;68856;45.586;10.264;2023-06-14T14:03:48;4.50;;;3.17;;
79399;SDS011;68856;45.586;10.264;2023-06-14T14:06:15;3.58;;;3.28;;
79399;SDS011;68856;45.586;10.264;2023-06-14T14:08:41;3.42;;;2.90;;
79399;SDS011;68856;45.586;10.264;2023-06-14T14:11:09;2.95;;;2.65;;
79399;SDS011;68856;45.586;10.264;2023-06-14T14:13:35;2.80;;;2.53;;
79399;SDS011;68856;45.586;10.264;2023-06-14T14:16:02;2.85;;;2.65;;
79399;SDS011;68856;45.586;10.264;2023-06-14T14:18:28;2.85;;;2.65;;
79399;SDS011;68856;45.586;10.264;2023-06-14T14:20:54;3.72;;;2.70;;
79399;SDS011;68856;45.586;10.264;2023-06-14T14:23:21;3.97;;;2.53;;
79399;SDS011;68856;45.586;10.264;2023-06-14T14:25:47;2.95;;;2.75;;
79399;SDS011;68856;45.586;10.264;2023-06-14T14:28:13;4.15;;;3.00;;
79399;SDS011;68856;45.586;10.264;2023-06-14T14:30:41;4.70;;;2.95;;
79399;SDS011;68856;45.586;10.264;2023-06-14T14:33:07;3.67;;;2.80;;
79399;SDS011;68856;45.586;10.264;2023-06-14T14:35:34;3.67;;;2.70;;
79399;SDS011;68856;45.586;10.264;2023-06-14T14:38:00;2.92;;;2.70;;
79399;SDS011;68856;45.586;10.264;2023-06-14T14:40:28;3.75;;;2.70;;
79399;SDS011;68856;45.586;10.264;2023-06-14T14:42:54;2.95;;;2.65;;
79399;SDS011;68856;45.586;10.264;2023-06-14T14:45:20;5.63;;;3.20;;
79399;SDS011;68856;45.586;10.264;2023-06-14T14:47:47;3.13;;;2.80;;
79399;SDS011;68856;45.586;10.264;2023-06-14T14:50:13;4.88;;;2.88;;
79399;SDS011;68856;45.586;10.264;2023-06-14T14:52:39;3.28;;;2.92;;